Time;durP1;ratioP1;P1;durP2;ratioP2;P2;SDS_P1;SDS_P2;PMS_P1;PMS_P2;Temp;Humidity;BMP_temperature;BMP_pressure;BME280_temperature;BME280_humidity;BME280_pressure;Samples;Min_cycle;Max_cycle;Signal;HPM_P1;HPM_P2
2024/04/09 00:00:44;;;;;;;9.05;3.47;;;20.80;99.90;;;;;;5413839;26;20271;-71
2024/04/09 00:03:10;;;;;;;11.75;3.88;;;20.70;99.90;;;;;;5416711;26;20220;-71
2024/04/09 00:05:45;;;;;;;11.85;3.85;;;20.70;99.90;;;;;;5416506;26;20297;-71
2024/04/09 00:08:12;;;;;;;16.23;3.45;;;20.60;99.90;;;;;;5416543;26;20267;-73
2024/04/09 00:10:38;;;;;;;12.90;3.60;;;20.50;99.90;;;;;;5416593;26;20212;-72
2024/04/09 00:13:06;;;;;;;10.95;3.53;;;20.40;99.90;;;;;;5416639;26;20270;-73
2024/04/09 00:15:36;;;;;;;18.90;4.15;;;20.40;99.90;;;;;;5388337;26;20273;-74
2024/04/09 00:18:11;;;;;;;16.02;4.20;;;20.40;99.90;;;;;;5383018;26;20280;-72
2024/04/09 00:20:43;;;;;;;13.38;4.03;;;20.40;99.90;;;;;;5381162;26;20300;-72
2024/04/09 00:23:12;;;;;;;9.25;3.58;;;20.30;99.90;;;;;;5381028;26;20318;-72
2024/04/09 00:25:39;;;;;;;9.38;3.97;;;20.20;99.90;;;;;;5381163;26;20221;-74
2024/04/09 00:28:05;;;;;;;12.30;4.35;;;20.10;99.90;;;;;;5380457;26;20213;-73
2024/04/09 00:30:30;;;;;;;18.30;3.88;;;19.90;99.90;;;;;;5381118;26;20547;-72
2024/04/09 00:32:56;;;;;;;9.85;3.72;;;19.70;99.90;;;;;;5380728;26;20272;-72
2024/04/09 00:35:22;;;;;;;12.45;4.75;;;19.60;99.90;;;;;;5382672;26;20221;-74
2024/04/09 00:37:51;;;;;;;13.15;4.47;;;19.30;99.90;;;;;;5381044;26;20229;-74
2024/04/09 00:40:19;;;;;;;10.70;3.90;;;19.10;99.90;;;;;;5381175;26;20217;-73
2024/04/09 00:42:49;;;;;;;14.77;4.15;;;19.00;99.90;;;;;;5380432;26;20233;-73
2024/04/09 00:45:17;;;;;;;14.30;4.70;;;18.80;99.90;;;;;;5379878;26;20218;-73
2024/04/09 00:47:46;;;;;;;13.73;4.35;;;18.70;99.90;;;;;;5380690;26;20209;-75
2024/04/09 00:50:12;;;;;;;8.38;4.65;;;18.60;99.90;;;;;;5380531;26;20221;-73
2024/04/09 00:52:41;;;;;;;12.18;4.05;;;18.50;99.90;;;;;;5401754;26;20274;-73
2024/04/09 00:55:11;;;;;;;15.53;4.80;;;18.30;99.90;;;;;;5416416;26;20276;-74
2024/04/09 00:57:40;;;;;;;14.70;4.50;;;18.20;99.90;;;;;;5415556;26;20212;-73
2024/04/09 01:00:08;;;;;;;12.90;5.72;;;18.10;99.90;;;;;;5415864;26;20204;-73
2024/04/09 01:02:34;;;;;;;10.97;3.63;;;18.00;99.90;;;;;;5416026;26;20729;-72
2024/04/09 01:05:00;;;;;;;13.68;4.85;;;17.90;99.90;;;;;;5415216;26;20238;-72
2024/04/09 01:07:27;;;;;;;12.03;4.33;;;17.80;99.90;;;;;;5391109;26;20333;-73
2024/04/09 01:09:53;;;;;;;11.57;4.10;;;17.70;99.90;;;;;;5380278;26;20735;-74
2024/04/09 01:12:18;;;;;;;9.50;4.03;;;17.60;99.90;;;;;;5380416;26;20221;-74
2024/04/09 01:14:44;;;;;;;8.90;4.60;;;17.60;99.90;;;;;;5380574;26;20256;-74
2024/04/09 01:17:10;;;;;;;7.40;3.80;;;17.50;99.90;;;;;;5380217;26;20213;-74
2024/04/09 01:19:35;;;;;;;12.43;4.50;;;17.50;99.90;;;;;;5379857;26;20758;-74
2024/04/09 01:22:01;;;;;;;16.40;4.37;;;17.40;99.90;;;;;;5397963;26;20240;-72
2024/04/09 01:24:28;;;;;;;14.70;5.13;;;17.30;99.90;;;;;;5413321;26;20276;-74
2024/04/09 01:26:54;;;;;;;7.93;3.93;;;17.30;99.90;;;;;;5414151;26;20581;-72
2024/04/09 01:29:21;;;;;;;13.43;4.47;;;17.10;99.90;;;;;;5414515;26;20537;-73
2024/04/09 01:31:48;;;;;;;10.43;4.33;;;17.00;99.90;;;;;;5415108;26;20251;-73
2024/04/09 01:34:15;;;;;;;14.23;4.80;;;17.00;99.90;;;;;;5414965;26;20836;-74
2024/04/09 01:36:41;;;;;;;8.50;4.27;;;17.00;99.90;;;;;;5412950;26;20221;-73
2024/04/09 01:39:08;;;;;;;9.43;4.70;;;17.00;99.90;;;;;;5414637;26;20258;-74
2024/04/09 01:41:36;;;;;;;8.17;4.23;;;16.90;99.90;;;;;;5410898;26;20220;-73
2024/04/09 01:44:02;;;;;;;17.00;5.40;;;16.90;99.90;;;;;;5379505;26;20217;-73
2024/04/09 01:46:28;;;;;;;14.33;4.43;;;16.90;99.90;;;;;;5379928;26;20295;-74
2024/04/09 01:48:53;;;;;;;10.20;5.53;;;16.80;99.90;;;;;;5380285;26;20221;-74
2024/04/09 01:51:19;;;;;;;11.40;4.60;;;16.70;99.90;;;;;;5379409;26;20213;-74
2024/04/09 01:53:48;;;;;;;14.07;5.00;;;16.70;99.90;;;;;;5381621;26;20314;-74
2024/04/09 01:56:15;;;;;;;11.80;5.43;;;16.60;99.90;;;;;;5379501;26;20652;-74
2024/04/09 01:58:41;;;;;;;11.57;4.33;;;16.50;99.90;;;;;;5379223;26;20213;-74
2024/04/09 02:01:09;;;;;;;8.07;4.60;;;16.50;99.90;;;;;;5379713;26;20259;-73
2024/04/09 02:03:38;;;;;;;12.47;4.83;;;16.50;99.90;;;;;;5379340;26;20244;-73
2024/04/09 02:06:05;;;;;;;12.87;4.80;;;16.50;99.90;;;;;;5379485;26;20217;-73
2024/04/09 02:08:32;;;;;;;13.77;4.63;;;16.50;99.90;;;;;;5379219;26;20269;-73
2024/04/09 02:10:59;;;;;;;8.80;4.43;;;16.40;99.90;;;;;;5378106;26;20321;-73
2024/04/09 02:13:25;;;;;;;11.50;4.80;;;16.40;99.90;;;;;;5381388;26;20225;-73
2024/04/09 02:15:50;;;;;;;14.13;4.50;;;16.40;99.90;;;;;;5379836;26;20294;-73
2024/04/09 02:18:16;;;;;;;10.93;4.87;;;16.40;99.90;;;;;;5379321;26;20681;-73
2024/04/09 02:20:45;;;;;;;10.77;4.50;;;16.30;99.90;;;;;;5379687;26;20809;-72
2024/04/09 02:23:11;;;;;;;14.13;4.63;;;16.30;99.90;;;;;;5379509;26;20268;-73
2024/04/09 02:25:40;;;;;;;10.47;4.40;;;16.30;99.90;;;;;;5379633;26;20626;-73
2024/04/09 02:28:06;;;;;;;8.30;4.60;;;16.30;99.90;;;;;;5379265;26;20212;-73
2024/04/09 02:30:33;;;;;;;13.63;4.80;;;16.30;99.90;;;;;;5411691;26;20271;-73
2024/04/09 02:32:59;;;;;;;9.93;4.23;;;16.20;99.90;;;;;;5414779;26;20704;-72
2024/04/09 02:35:24;;;;;;;8.93;4.63;;;16.30;99.90;;;;;;5414851;26;20286;-73
2024/04/09 02:37:50;;;;;;;11.40;4.30;;;16.20;99.90;;;;;;5381114;26;20335;-72
2024/04/09 02:40:16;;;;;;;10.57;4.23;;;16.20;99.90;;;;;;5379182;26;20209;-72
2024/04/09 02:42:43;;;;;;;12.80;3.87;;;16.20;99.90;;;;;;5378824;26;20269;-73
2024/04/09 02:45:09;;;;;;;14.80;3.90;;;16.10;99.90;;;;;;5381732;26;20217;-73
2024/04/09 02:47:35;;;;;;;13.60;4.50;;;16.10;99.90;;;;;;5379336;26;20258;-72
2024/04/09 02:50:02;;;;;;;9.43;4.23;;;16.10;99.90;;;;;;5379099;26;20247;-73
2024/04/09 02:52:27;;;;;;;9.17;3.83;;;16.00;99.90;;;;;;5378874;26;20229;-73
2024/04/09 02:54:53;;;;;;;16.13;4.23;;;16.00;99.90;;;;;;5379075;26;20205;-73
2024/04/09 02:57:18;;;;;;;9.40;4.67;;;15.90;99.90;;;;;;5378962;26;20209;-73
2024/04/09 02:59:44;;;;;;;10.73;4.57;;;15.90;99.90;;;;;;5380516;26;20750;-73
2024/04/09 03:02:10;;;;;;;8.67;3.60;;;15.90;99.90;;;;;;5384433;26;20241;-73
2024/04/09 03:04:36;;;;;;;11.77;4.17;;;15.80;99.90;;;;;;5382486;26;20317;-73
2024/04/09 03:07:03;;;;;;;8.40;4.77;;;15.80;99.90;;;;;;5382396;26;20702;-73
2024/04/09 03:09:30;;;;;;;9.80;4.50;;;15.80;99.90;;;;;;5382046;26;20261;-73
2024/04/09 03:11:56;;;;;;;12.67;5.17;;;15.80;99.90;;;;;;5382572;26;20221;-73
2024/04/09 03:14:23;;;;;;;11.10;4.40;;;15.80;99.90;;;;;;5382174;26;20205;-73
2024/04/09 03:16:49;;;;;;;15.13;5.13;;;15.90;99.90;;;;;;5395416;26;20280;-73
2024/04/09 03:19:17;;;;;;;10.47;6.23;;;15.90;99.90;;;;;;5384134;26;20268;-73
2024/04/09 03:21:42;;;;;;;9.33;4.10;;;16.00;99.90;;;;;;5382008;26;20268;-73
2024/04/09 03:24:08;;;;;;;9.37;3.43;;;16.00;99.90;;;;;;5382039;26;20210;-73
2024/04/09 03:26:34;;;;;;;12.17;4.30;;;16.10;99.90;;;;;;5382089;26;20269;-73
2024/04/09 03:28:59;;;;;;;8.57;3.87;;;16.20;99.90;;;;;;5381984;26;20213;-73
2024/04/09 03:31:25;;;;;;;12.27;3.87;;;16.20;99.90;;;;;;5382112;26;20256;-73
2024/04/09 03:33:51;;;;;;;11.93;4.03;;;16.20;99.90;;;;;;5382256;26;20321;-74
2024/04/09 03:36:16;;;;;;;11.73;4.73;;;16.20;99.90;;;;;;5383858;26;20605;-73
2024/04/09 03:38:43;;;;;;;7.47;3.77;;;16.20;99.90;;;;;;5381987;26;20278;-73
2024/04/09 03:41:09;;;;;;;5.33;3.73;;;16.20;99.90;;;;;;5381896;26;20214;-74
2024/04/09 03:43:35;;;;;;;11.50;4.80;;;16.20;99.90;;;;;;5382276;26;20275;-72
2024/04/09 03:46:06;;;;;;;8.60;4.00;;;16.20;99.90;;;;;;5382130;26;20688;-72
2024/04/09 03:48:46;;;;;;;7.00;3.50;;;16.30;99.90;;;;;;5380787;26;20238;-72
2024/04/09 03:51:17;;;;;;;11.07;3.40;;;16.30;99.90;;;;;;5381920;26;20244;-74
2024/04/09 03:53:45;;;;;;;8.70;4.03;;;16.30;99.90;;;;;;5381511;26;20275;-72
2024/04/09 03:56:11;;;;;;;8.20;3.77;;;16.30;99.90;;;;;;5384119;26;20226;-72
2024/04/09 03:58:45;;;;;;;8.83;4.03;;;16.20;99.90;;;;;;5381176;26;20569;-72
2024/04/09 04:01:12;;;;;;;10.77;3.73;;;16.30;99.90;;;;;;5381869;26;20325;-73
2024/04/09 04:03:44;;;;;;;7.73;3.67;;;16.20;99.90;;;;;;5381569;26;20221;-73
2024/04/09 04:06:10;;;;;;;5.80;3.40;;;16.20;99.90;;;;;;5381493;26;20484;-73
2024/04/09 04:08:38;;;;;;;3.40;2.77;;;16.10;99.90;;;;;;5380934;26;20689;-73
2024/04/09 04:11:10;;;;;;;5.80;3.30;;;15.90;99.90;;;;;;5389841;26;20708;-72
2024/04/09 04:13:37;;;;;;;6.70;3.30;;;15.80;99.90;;;;;;5417349;26;20209;-71
2024/04/09 04:16:06;;;;;;;8.87;3.53;;;15.80;99.90;;;;;;5417501;26;20259;-72
2024/04/09 04:18:34;;;;;;;4.27;3.10;;;15.70;99.90;;;;;;5416299;26;20204;-73
2024/04/09 04:21:01;;;;;;;5.30;2.80;;;15.70;99.90;;;;;;5416415;26;20224;-72
2024/04/09 04:23:27;;;;;;;7.57;3.10;;;15.70;99.90;;;;;;5415847;26;20597;-73
2024/04/09 04:26:06;;;;;;;3.77;2.67;;;15.60;99.90;;;;;;5414338;26;20220;-71
2024/04/09 04:28:42;;;;;;;2.67;2.47;;;15.70;99.90;;;;;;5380414;26;20252;-71
2024/04/09 04:31:13;;;;;;;3.33;2.60;;;15.70;99.90;;;;;;5381122;26;20213;-73
2024/04/09 04:33:40;;;;;;;4.37;2.80;;;15.70;99.90;;;;;;5381105;26;20214;-74
2024/04/09 04:36:07;;;;;;;4.03;2.97;;;15.70;99.90;;;;;;5380775;26;20209;-72
2024/04/09 04:38:32;;;;;;;7.67;3.00;;;15.70;99.90;;;;;;5380393;26;20209;-74
2024/04/09 04:40:59;;;;;;;3.43;3.00;;;15.70;99.90;;;;;;5381091;26;20225;-74
2024/04/09 04:43:24;;;;;;;14.27;3.80;;;15.80;99.90;;;;;;5394063;26;20723;-73
2024/04/09 04:45:51;;;;;;;5.07;2.80;;;15.80;99.90;;;;;;5416500;26;20216;-74
2024/04/09 04:48:18;;;;;;;3.37;3.10;;;15.80;99.90;;;;;;5416141;26;20258;-74
2024/04/09 04:50:45;;;;;;;2.57;2.40;;;15.80;99.90;;;;;;5416482;26;20602;-73
2024/04/09 04:53:11;;;;;;;3.53;2.30;;;15.80;99.90;;;;;;5416309;26;20545;-73
2024/04/09 04:55:37;;;;;;;7.50;2.50;;;15.80;99.90;;;;;;5416123;26;20276;-74
2024/04/09 04:58:03;;;;;;;5.50;2.60;;;15.80;99.90;;;;;;5404148;26;20256;-73
2024/04/09 05:00:29;;;;;;;3.97;2.70;;;15.80;99.90;;;;;;5380635;26;20544;-73
2024/04/09 05:02:55;;;;;;;2.97;2.77;;;15.80;99.90;;;;;;5380960;26;20325;-73
2024/04/09 05:05:21;;;;;;;5.67;2.83;;;15.80;99.90;;;;;;5380682;26;20213;-73
2024/04/09 05:07:48;;;;;;;3.43;2.40;;;15.80;99.90;;;;;;5380270;26;20256;-74
2024/04/09 05:10:15;;;;;;;2.60;2.50;;;15.70;99.90;;;;;;5407083;26;20561;-74
2024/04/09 05:12:46;;;;;;;3.70;2.50;;;15.50;99.90;;;;;;5415797;26;20262;-73
2024/04/09 05:15:13;;;;;;;3.03;2.37;;;15.40;99.90;;;;;;5416438;26;20252;-73
2024/04/09 05:17:39;;;;;;;3.73;2.70;;;15.30;99.90;;;;;;5415860;26;20631;-73
2024/04/09 05:20:11;;;;;;;3.53;2.80;;;15.30;99.90;;;;;;5415514;26;20306;-73
2024/04/09 05:22:38;;;;;;;5.17;2.80;;;15.30;99.90;;;;;;5415558;26;20300;-73
2024/04/09 05:25:07;;;;;;;2.73;2.53;;;15.20;99.90;;;;;;5413038;26;20228;-73
2024/04/09 05:27:33;;;;;;;2.93;2.60;;;15.30;99.90;;;;;;5415458;26;20209;-73
2024/04/09 05:29:59;;;;;;;2.90;2.70;;;15.30;99.90;;;;;;5412843;26;20618;-72
2024/04/09 05:32:26;;;;;;;4.13;2.80;;;15.20;99.90;;;;;;5415618;26;20263;-73
2024/04/09 05:34:53;;;;;;;4.90;2.97;;;15.20;99.90;;;;;;5415495;26;20259;-73
2024/04/09 05:37:19;;;;;;;4.10;3.00;;;15.20;99.90;;;;;;5414668;26;20224;-73
2024/04/09 05:39:46;;;;;;;3.00;2.70;;;15.10;99.90;;;;;;5414412;26;20216;-73
2024/04/09 05:42:13;;;;;;;3.60;3.10;;;15.10;99.90;;;;;;5411204;26;20220;-73
2024/04/09 05:44:39;;;;;;;3.37;2.67;;;15.10;99.90;;;;;;5415395;26;20305;-73
2024/04/09 05:47:05;;;;;;;3.30;3.00;;;15.10;99.90;;;;;;5415181;26;20220;-74
2024/04/09 05:49:31;;;;;;;3.77;3.10;;;15.10;99.90;;;;;;5413413;26;20543;-73
2024/04/09 05:51:57;;;;;;;2.93;2.60;;;15.00;99.90;;;;;;5379913;26;20339;-74
2024/04/09 05:54:23;;;;;;;4.43;3.10;;;15.00;99.90;;;;;;5380042;26;20209;-72
2024/04/09 05:56:49;;;;;;;3.03;2.50;;;14.70;99.90;;;;;;5379659;26;20210;-75
2024/04/09 05:59:15;;;;;;;2.73;2.53;;;14.50;99.90;;;;;;5382088;26;20225;-72
2024/04/09 06:01:40;;;;;;;2.63;2.40;;;14.20;99.90;;;;;;5380117;26;20275;-74
2024/04/09 06:04:06;;;;;;;2.83;2.67;;;13.90;99.90;;;;;;5379930;26;20210;-74
2024/04/09 06:06:32;;;;;;;2.80;2.60;;;13.70;99.90;;;;;;5379918;26;20304;-72
2024/04/09 06:08:57;;;;;;;2.80;2.60;;;13.50;99.90;;;;;;5410467;26;20220;-73
2024/04/09 06:11:24;;;;;;;3.87;2.80;;;13.20;99.90;;;;;;5415020;26;20216;-73
2024/04/09 06:13:53;;;;;;;4.93;2.77;;;13.10;99.90;;;;;;5414564;26;20220;-75
2024/04/09 06:16:19;;;;;;;3.47;2.83;;;13.00;99.90;;;;;;5412288;26;20585;-73
2024/04/09 06:18:45;;;;;;;2.73;2.63;;;12.90;99.90;;;;;;5414368;26;20212;-74
2024/04/09 06:21:10;;;;;;;2.80;2.70;;;12.90;99.90;;;;;;5414792;26;20317;-75
2024/04/09 06:23:36;;;;;;;2.90;2.70;;;12.80;99.90;;;;;;5415083;26;20262;-74
2024/04/09 06:26:02;;;;;;;3.00;2.80;;;12.80;99.90;;;;;;5414977;26;20209;-75
2024/04/09 06:28:28;;;;;;;2.97;2.77;;;12.80;99.90;;;;;;5414275;26;20696;-74
2024/04/09 06:30:54;;;;;;;2.97;2.77;;;12.80;99.90;;;;;;5414024;26;20259;-75
2024/04/09 06:33:20;;;;;;;2.97;2.73;;;12.80;99.90;;;;;;5405643;26;20237;-74
2024/04/09 06:35:46;;;;;;;2.90;2.70;;;12.90;99.90;;;;;;5379067;26;20209;-74
2024/04/09 06:38:11;;;;;;;4.37;3.17;;;12.90;99.90;;;;;;5378553;26;20209;-73
2024/04/09 06:40:37;;;;;;;3.00;2.80;;;13.00;99.90;;;;;;5378929;26;20566;-73
2024/04/09 06:43:03;;;;;;;3.13;2.93;;;13.10;99.90;;;;;;5378880;26;20763;-74
2024/04/09 06:45:29;;;;;;;3.03;2.83;;;13.10;99.90;;;;;;5377430;26;20580;-73
2024/04/09 06:47:55;;;;;;;3.30;3.00;;;13.00;99.90;;;;;;5383495;26;20232;-74
2024/04/09 06:50:20;;;;;;;3.13;2.93;;;12.80;99.90;;;;;;5414276;26;20249;-75
2024/04/09 06:52:46;;;;;;;4.07;3.13;;;12.70;99.90;;;;;;5414460;26;20220;-72
2024/04/09 06:55:11;;;;;;;3.07;2.87;;;12.70;99.90;;;;;;5414669;26;20243;-75
2024/04/09 06:57:37;;;;;;;5.00;3.33;;;12.60;99.90;;;;;;5413729;26;20263;-73
2024/04/09 07:00:04;;;;;;;5.60;3.83;;;12.60;99.90;;;;;;5413914;26;20212;-74
2024/04/09 07:02:30;;;;;;;4.77;2.97;;;12.60;99.90;;;;;;5414260;26;20266;-75
2024/04/09 07:04:56;;;;;;;3.20;3.00;;;12.70;99.90;;;;;;5410960;26;20574;-73
2024/04/09 07:07:23;;;;;;;3.07;2.80;;;12.70;99.90;;;;;;5414256;26;20334;-74
2024/04/09 07:09:49;;;;;;;4.87;3.13;;;12.80;99.90;;;;;;5411016;26;20792;-73
2024/04/09 07:12:15;;;;;;;3.07;2.87;;;12.90;99.90;;;;;;5414003;26;20291;-74
2024/04/09 07:14:41;;;;;;;4.07;2.80;;;13.00;99.90;;;;;;5414100;26;20212;-74
2024/04/09 07:17:06;;;;;;;10.70;3.67;;;13.00;99.90;;;;;;5413632;26;20228;-75
2024/04/09 07:19:32;;;;;;;5.00;2.70;;;12.90;99.90;;;;;;5404818;26;20251;-75
2024/04/09 07:21:57;;;;;;;2.60;2.50;;;12.90;99.90;;;;;;5410791;26;20284;-74
2024/04/09 07:24:23;;;;;;;3.03;2.70;;;12.90;99.90;;;;;;5413639;26;20213;-74
2024/04/09 07:26:49;;;;;;;2.93;2.50;;;12.80;99.90;;;;;;5413047;26;20692;-72
2024/04/09 07:29:14;;;;;;;3.90;2.60;;;12.90;99.90;;;;;;5413576;26;20262;-76
2024/04/09 07:31:40;;;;;;;3.77;3.00;;;12.90;99.90;;;;;;5411776;26;20267;-75
2024/04/09 07:34:06;;;;;;;3.03;2.70;;;13.00;99.90;;;;;;5413162;26;20256;-75
2024/04/09 07:36:32;;;;;;;4.03;2.80;;;13.00;99.90;;;;;;5413548;26;20695;-72
2024/04/09 07:38:57;;;;;;;4.10;3.00;;;13.00;99.90;;;;;;5410017;26;20302;-72
2024/04/09 07:41:23;;;;;;;3.53;2.87;;;13.10;99.90;;;;;;5413114;26;20555;-72
2024/04/09 07:43:51;;;;;;;4.27;2.70;;;13.10;99.90;;;;;;5413282;26;20212;-72
2024/04/09 07:46:18;;;;;;;4.00;3.23;;;13.10;99.90;;;;;;5414989;26;20268;-74
2024/04/09 07:48:44;;;;;;;3.17;2.83;;;13.20;99.90;;;;;;5416877;26;20212;-73
2024/04/09 07:51:09;;;;;;;2.67;2.47;;;13.30;99.90;;;;;;5417239;26;20254;-72
2024/04/09 07:53:35;;;;;;;4.50;2.97;;;13.30;99.90;;;;;;5417020;26;20208;-73
2024/04/09 07:56:08;;;;;;;5.20;2.80;;;13.40;99.90;;;;;;5385120;26;20221;-71
2024/04/09 07:58:34;;;;;;;3.10;2.57;;;13.70;99.90;;;;;;5381456;26;20213;-71
2024/04/09 08:01:01;;;;;;;2.70;2.50;;;13.80;99.90;;;;;;5381821;26;20256;-73
2024/04/09 08:03:27;;;;;;;3.40;3.00;;;13.90;99.90;;;;;;5382053;26;20272;-74
2024/04/09 08:05:53;;;;;;;4.50;3.00;;;14.00;99.90;;;;;;5379640;26;20220;-74
2024/04/09 08:08:18;;;;;;;4.23;2.70;;;14.10;99.90;;;;;;5381074;26;20312;-75
2024/04/09 08:10:44;;;;;;;4.80;2.60;;;14.10;99.90;;;;;;5382397;26;20329;-74
2024/04/09 08:13:10;;;;;;;2.80;2.60;;;14.10;99.90;;;;;;5381722;26;20260;-75
2024/04/09 08:15:36;;;;;;;3.80;2.53;;;14.10;99.90;;;;;;5381145;26;20209;-73
2024/04/09 08:18:02;;;;;;;2.67;2.47;;;14.10;99.90;;;;;;5380615;26;20555;-74
2024/04/09 08:20:28;;;;;;;3.97;2.63;;;14.00;99.90;;;;;;5380906;26;20229;-72
2024/04/09 08:22:54;;;;;;;3.03;2.40;;;14.00;99.90;;;;;;5380819;26;20252;-73
2024/04/09 08:25:20;;;;;;;7.93;2.83;;;13.90;99.90;;;;;;5381532;26;20386;-73
2024/04/09 08:27:46;;;;;;;3.50;2.47;;;13.90;99.90;;;;;;5381037;26;20221;-72
2024/04/09 08:30:14;;;;;;;4.27;2.60;;;13.90;99.90;;;;;;5380535;26;20237;-75
2024/04/09 08:32:41;;;;;;;2.90;2.60;;;13.90;99.90;;;;;;5386919;26;20233;-75
2024/04/09 08:35:07;;;;;;;3.67;2.43;;;14.00;99.90;;;;;;5414592;26;20232;-76
2024/04/09 08:37:33;;;;;;;3.30;2.40;;;14.10;99.90;;;;;;5414555;26;20232;-73
2024/04/09 08:39:59;;;;;;;2.80;2.53;;;14.20;99.90;;;;;;5416241;26;20263;-74
2024/04/09 08:42:28;;;;;;;2.50;2.30;;;14.30;99.90;;;;;;5388336;26;20272;-74
2024/04/09 08:44:55;;;;;;;5.80;2.50;;;14.40;99.90;;;;;;5415934;26;20215;-74
2024/04/09 08:47:23;;;;;;;2.77;2.23;;;14.40;99.90;;;;;;5414452;26;20208;-71
2024/04/09 08:49:50;;;;;;;2.80;2.60;;;14.40;99.90;;;;;;5380432;26;20289;-72
2024/04/09 08:52:18;;;;;;;3.03;2.53;;;14.30;99.90;;;;;;5381234;26;20272;-71
2024/04/09 08:54:44;;;;;;;2.70;2.50;;;14.40;99.90;;;;;;5381001;26;20273;-75
2024/04/09 08:57:09;;;;;;;3.30;3.00;;;14.40;99.90;;;;;;5378958;26;20572;-73
2024/04/09 08:59:36;;;;;;;3.70;2.27;;;14.40;99.90;;;;;;5378264;26;20323;-75
2024/04/09 09:02:15;;;;;;;4.07;2.50;;;14.30;99.90;;;;;;5380238;26;20225;-74
2024/04/09 09:04:42;;;;;;;2.77;2.40;;;14.20;99.90;;;;;;5386411;26;20220;-74
2024/04/09 09:07:18;;;;;;;7.33;2.93;;;14.20;99.90;;;;;;5415515;26;20228;-74
2024/04/09 09:09:44;;;;;;;2.53;2.33;;;14.10;99.90;;;;;;5414049;26;20722;-73
2024/04/09 09:12:10;;;;;;;7.40;2.93;;;14.10;99.90;;;;;;5415960;26;20751;-74
2024/04/09 09:14:37;;;;;;;3.07;2.53;;;14.20;99.90;;;;;;5386164;26;20260;-73
2024/04/09 09:17:03;;;;;;;3.23;2.47;;;14.40;99.90;;;;;;5398223;26;20323;-73
2024/04/09 09:19:33;;;;;;;4.40;2.87;;;14.50;99.90;;;;;;5381084;26;20217;-74
2024/04/09 09:22:03;;;;;;;4.33;2.60;;;14.40;99.90;;;;;;5410811;26;20820;-73
2024/04/09 09:24:29;;;;;;;5.30;2.63;;;14.40;99.90;;;;;;5415600;26;20250;-74
2024/04/09 09:27:05;;;;;;;3.80;2.50;;;14.30;99.90;;;;;;5380767;26;20311;-73
2024/04/09 09:29:32;;;;;;;3.30;2.63;;;14.30;99.90;;;;;;5380655;26;20205;-72
2024/04/09 09:31:59;;;;;;;6.20;2.80;;;14.30;99.90;;;;;;5378694;26;20233;-72
2024/04/09 09:34:42;;;;;;;2.50;2.37;;;14.20;99.90;;;;;;5381714;26;20217;-74
2024/04/09 09:37:09;;;;;;;2.97;2.37;;;14.10;99.90;;;;;;5400771;26;20251;-73
2024/04/09 09:39:39;;;;;;;6.50;2.50;;;14.10;99.90;;;;;;5415477;26;20255;-74
2024/04/09 09:42:06;;;;;;;2.77;2.47;;;14.20;99.90;;;;;;5415480;26;20745;-73
2024/04/09 09:44:39;;;;;;;2.60;2.40;;;14.50;99.90;;;;;;5415899;26;20688;-74
2024/04/09 09:47:06;;;;;;;5.47;2.73;;;14.90;99.90;;;;;;5415314;26;20300;-75
2024/04/09 09:49:33;;;;;;;6.00;2.57;;;15.50;99.90;;;;;;5415553;26;20309;-71
2024/04/09 09:51:59;;;;;;;4.10;2.27;;;15.90;99.90;;;;;;5415447;26;20721;-75
2024/04/09 09:54:28;;;;;;;5.63;2.30;;;16.10;99.90;;;;;;5405973;26;20272;-74
2024/04/09 09:57:01;;;;;;;2.93;2.30;;;16.20;99.90;;;;;;5395208;26;20221;-75
2024/04/09 09:59:31;;;;;;;3.90;2.30;;;16.40;99.90;;;;;;5379860;26;20217;-75
2024/04/09 10:01:59;;;;;;;2.47;2.00;;;16.40;99.90;;;;;;5379789;26;20222;-73
2024/04/09 10:04:25;;;;;;;4.27;2.20;;;16.60;99.90;;;;;;5379587;26;20209;-73
2024/04/09 10:06:59;;;;;;;7.63;2.17;;;16.70;99.90;;;;;;5388150;26;20220;-73
2024/04/09 10:09:41;;;;;;;3.43;2.10;;;16.70;99.90;;;;;;5413884;26;20216;-73
2024/04/09 10:12:18;;;;;;;2.80;2.10;;;16.80;99.90;;;;;;5414979;26;20284;-73
2024/04/09 10:14:43;;;;;;;3.13;2.00;;;16.70;99.90;;;;;;5415201;26;20212;-75
2024/04/09 10:17:12;;;;;;;6.60;2.40;;;16.70;99.90;;;;;;5415070;26;20262;-74
2024/04/09 10:19:38;;;;;;;4.70;2.40;;;16.70;99.90;;;;;;5414959;26;20220;-71
2024/04/09 10:22:03;;;;;;;2.53;2.00;;;16.70;99.90;;;;;;5414614;26;20224;-74
2024/04/09 10:24:35;;;;;;;4.10;2.07;;;16.50;99.90;;;;;;5414783;26;20246;-72
2024/04/09 10:27:01;;;;;;;4.83;2.30;;;16.30;99.90;;;;;;5390972;26;20260;-72
2024/04/09 10:29:29;;;;;;;5.20;2.63;;;16.00;99.90;;;;;;5379509;26;20272;-74
2024/04/09 10:31:55;;;;;;;7.00;2.37;;;15.80;99.90;;;;;;5379797;26;20609;-72
2024/04/09 10:34:26;;;;;;;3.00;2.10;;;15.70;99.90;;;;;;5379384;26;20209;-73
2024/04/09 10:36:55;;;;;;;4.17;2.27;;;15.60;99.90;;;;;;5379738;26;20701;-74
2024/04/09 10:39:21;;;;;;;4.27;2.00;;;15.50;99.90;;;;;;5379299;26;20205;-74
2024/04/09 10:41:57;;;;;;;4.47;2.30;;;15.40;99.90;;;;;;5390301;26;20295;-75
2024/04/09 10:44:26;;;;;;;3.10;2.30;;;15.40;99.90;;;;;;5414328;26;20695;-74
2024/04/09 10:46:52;;;;;;;4.40;2.33;;;15.50;99.90;;;;;;5400042;26;20226;-72
2024/04/09 10:49:18;;;;;;;7.37;2.33;;;15.70;99.90;;;;;;5400288;26;20315;-74
2024/04/09 10:51:45;;;;;;;3.50;2.40;;;15.80;99.90;;;;;;5412952;26;20274;-73
2024/04/09 10:54:15;;;;;;;2.23;2.00;;;16.00;99.90;;;;;;5409120;26;20620;-75
2024/04/09 10:56:41;;;;;;;3.07;2.20;;;16.00;99.90;;;;;;5414484;26;20258;-75
2024/04/09 10:59:14;;;;;;;6.13;2.20;;;16.10;99.90;;;;;;5414099;26;20696;-72
2024/04/09 11:01:41;;;;;;;3.57;2.00;;;16.10;99.90;;;;;;5414719;26;20324;-72
2024/04/09 11:04:10;;;;;;;3.27;2.20;;;16.30;99.90;;;;;;5414525;26;20875;-76
2024/04/09 11:06:36;;;;;;;8.43;2.73;;;16.50;99.90;;;;;;5415399;26;20219;-72
2024/04/09 11:09:01;;;;;;;5.70;2.20;;;16.70;99.90;;;;;;5413729;26;20242;-72
2024/04/09 11:11:27;;;;;;;5.40;2.70;;;17.00;99.90;;;;;;5414336;26;20232;-73
2024/04/09 11:13:54;;;;;;;5.03;2.67;;;17.10;99.90;;;;;;5414148;26;20255;-76
2024/04/09 11:16:19;;;;;;;4.67;2.43;;;17.10;99.90;;;;;;5412454;26;20228;-75
2024/04/09 11:18:58;;;;;;;2.83;2.20;;;17.00;99.90;;;;;;5413946;26;20692;-74
2024/04/09 11:21:24;;;;;;;4.47;2.73;;;16.90;99.90;;;;;;5417140;26;20571;-74
2024/04/09 11:23:50;;;;;;;2.77;2.40;;;17.10;99.90;;;;;;5418087;26;20263;-76
2024/04/09 11:26:19;;;;;;;3.13;2.50;;;17.00;99.90;;;;;;5417674;26;20217;-73
2024/04/09 11:28:55;;;;;;;3.40;2.37;;;16.70;99.90;;;;;;5417731;26;20275;-77
2024/04/09 11:31:24;;;;;;;2.77;2.30;;;16.60;99.90;;;;;;5418095;26;20254;-72
2024/04/09 11:33:50;;;;;;;2.40;1.90;;;16.70;99.90;;;;;;5417863;26;20254;-74
2024/04/09 11:36:16;;;;;;;2.23;2.03;;;16.90;99.90;;;;;;5417701;26;20213;-74
2024/04/09 11:38:42;;;;;;;6.73;2.60;;;17.30;99.90;;;;;;5418153;26;20629;-75
2024/04/09 11:41:08;;;;;;;4.55;2.30;;;17.40;99.90;;;;;;5418246;26;20212;-74
2024/04/09 11:43:34;;;;;;;3.08;2.10;;;17.50;99.90;;;;;;5418089;26;20255;-72
2024/04/09 11:46:01;;;;;;;2.10;2.00;;;17.50;99.90;;;;;;5417585;26;20224;-75
2024/04/09 11:48:27;;;;;;;5.17;2.60;;;17.60;99.90;;;;;;5417587;26;20212;-73
2024/04/09 11:50:53;;;;;;;2.80;2.23;;;17.60;99.90;;;;;;5417493;26;20208;-76
2024/04/09 11:53:19;;;;;;;4.90;2.40;;;17.50;99.90;;;;;;5417577;26;20271;-73
2024/04/09 11:55:45;;;;;;;4.20;2.30;;;17.30;99.90;;;;;;5416834;26;20212;-75
2024/04/09 11:58:12;;;;;;;4.70;2.37;;;17.20;99.90;;;;;;5416484;26;20259;-73
2024/04/09 12:00:38;;;;;;;3.93;2.30;;;17.30;99.90;;;;;;5418041;26;20255;-76
2024/04/09 12:03:05;;;;;;;2.40;2.20;;;17.30;99.90;;;;;;5417049;26;20221;-76
2024/04/09 12:05:31;;;;;;;4.70;2.30;;;17.30;99.90;;;;;;5417883;26;20220;-73
2024/04/09 12:07:58;;;;;;;3.80;2.30;;;17.10;99.90;;;;;;5416957;26;20585;-74
2024/04/09 12:10:23;;;;;;;3.00;2.20;;;17.00;99.90;;;;;;5417176;26;20256;-73
2024/04/09 12:12:51;;;;;;;5.45;2.30;;;17.40;99.90;;;;;;5416843;26;20228;-75
2024/04/09 12:15:18;;;;;;;2.42;2.00;;;17.90;99.90;;;;;;5417126;26;20258;-74
2024/04/09 12:17:44;;;;;;;4.35;2.10;;;18.40;99.90;;;;;;5416825;26;20220;-74
2024/04/09 12:20:10;;;;;;;4.22;2.20;;;18.70;99.70;;;;;;5416396;26;20254;-73
2024/04/09 12:22:35;;;;;;;2.90;2.10;;;18.90;98.00;;;;;;5416513;26;20271;-76
2024/04/09 12:25:01;;;;;;;4.18;1.95;;;18.60;96.50;;;;;;5417030;26;20294;-75
2024/04/09 12:27:27;;;;;;;2.92;2.20;;;18.60;97.50;;;;;;5416626;26;20796;-75
2024/04/09 12:29:53;;;;;;;2.40;1.80;;;18.70;95.50;;;;;;5416237;26;20216;-75
2024/04/09 12:32:19;;;;;;;2.88;1.75;;;18.50;95.60;;;;;;5415579;26;20224;-75
2024/04/09 12:34:46;;;;;;;3.13;2.10;;;18.50;94.30;;;;;;5416226;26;20217;-73
2024/04/09 12:37:12;;;;;;;6.47;2.10;;;18.10;96.20;;;;;;5416334;26;20224;-73
2024/04/09 12:39:38;;;;;;;2.95;2.10;;;18.10;95.50;;;;;;5414338;26;20247;-73
2024/04/09 12:42:04;;;;;;;4.53;1.88;;;18.30;95.60;;;;;;5415865;26;20338;-75
2024/04/09 12:44:30;;;;;;;6.38;2.10;;;18.40;93.50;;;;;;5416628;26;20212;-74